REV956 LFBH-EGKB
Flight info
| Callsign | REV956 |
|---|---|
| Flight time | 1h 8m |
| Altitude | 18000 |
| Route | LUSON A53 ANG/N0503F340 UN861 DIKRO UZ273 ANGLO/N0504F330 UZ273 NEVIL |
| Aircraft | C750/M-SDFGHRUWXYZ/HB1 |
Departure
| Time | 2026-04-28 13:12 |
|---|---|
| Airport | La Rochelle Île de Ré Airport (LFBH) |
Arrival
| Time | 2026-04-28 14:20 |
|---|---|
| Airport | London Biggin Hill Airport (EGKB) |
| Time | Latitude | Longitude | Altitude | Speed | Heading |
|---|---|---|---|---|---|
| 2026-04-28 12:46 | 46.17657 | -1.19431 | 69 ft | 0 kts | 318° |
| 2026-04-28 13:06 | 46.17672 | -1.19451 | 69 ft | 6 kts | 318° |
| 2026-04-28 13:07 | 46.17708 | -1.19492 | 74 ft | 6 kts | 331° |
| 2026-04-28 13:07 | 46.17746 | -1.19498 | 74 ft | 5 kts | 4° |
| 2026-04-28 13:07 | 46.17778 | -1.19497 | 74 ft | 4 kts | 1° |
| 2026-04-28 13:07 | 46.17816 | -1.19496 | 73 ft | 8 kts | 1° |
| 2026-04-28 13:08 | 46.17876 | -1.19492 | 69 ft | 8 kts | 3° |
| 2026-04-28 13:08 | 46.17920 | -1.19523 | 73 ft | 7 kts | 292° |
| 2026-04-28 13:08 | 46.17921 | -1.19560 | 73 ft | 4 kts | 269° |
| 2026-04-28 13:08 | 46.17922 | -1.19632 | 73 ft | 10 kts | 272° |
| 2026-04-28 13:09 | 46.17925 | -1.19736 | 73 ft | 10 kts | 273° |
| 2026-04-28 13:09 | 46.17928 | -1.19835 | 70 ft | 11 kts | 272° |
| 2026-04-28 13:09 | 46.17933 | -1.19981 | 72 ft | 17 kts | 273° |
| 2026-04-28 13:09 | 46.17938 | -1.20151 | 73 ft | 17 kts | 272° |
| 2026-04-28 13:10 | 46.17943 | -1.20331 | 72 ft | 20 kts | 272° |
| 2026-04-28 13:10 | 46.17949 | -1.20525 | 71 ft | 19 kts | 272° |
| 2026-04-28 13:10 | 46.17962 | -1.20667 | 67 ft | 6 kts | 286° |
| 2026-04-28 13:10 | 46.17956 | -1.20673 | 67 ft | 0 kts | 185° |
| 2026-04-28 13:11 | 46.17953 | -1.20665 | 67 ft | 3 kts | 124° |
| 2026-04-28 13:11 | 46.17951 | -1.20630 | 70 ft | 8 kts | 91° |
| 2026-04-28 13:11 | 46.17937 | -1.20126 | 74 ft | 118 kts | 92° |
| 2026-04-28 13:11 | 46.17901 | -1.18632 | 628 ft | 171 kts | 90° |
| 2026-04-28 13:12 | 46.17827 | -1.16782 | 1282 ft | 192 kts | 91° |
| 2026-04-28 13:12 | 46.17791 | -1.14802 | 1866 ft | 205 kts | 82° |
| 2026-04-28 13:12 | 46.18480 | -1.12877 | 2122 ft | 235 kts | 47° |
| 2026-04-28 13:12 | 46.19997 | -1.11842 | 2846 ft | 247 kts | 9° |
| 2026-04-28 13:13 | 46.21702 | -1.12258 | 3921 ft | 257 kts | 339° |
| 2026-04-28 13:13 | 46.23281 | -1.13516 | 5008 ft | 263 kts | 329° |
| 2026-04-28 13:13 | 46.24861 | -1.14926 | 5952 ft | 271 kts | 330° |
| 2026-04-28 13:13 | 46.26523 | -1.16261 | 6928 ft | 276 kts | 333° |
| 2026-04-28 13:14 | 46.28230 | -1.17581 | 7991 ft | 279 kts | 332° |
| 2026-04-28 13:14 | 46.29929 | -1.18940 | 9163 ft | 280 kts | 330° |
| 2026-04-28 13:14 | 46.31638 | -1.20322 | 10171 ft | 283 kts | 329° |
| 2026-04-28 13:14 | 46.33423 | -1.21756 | 10593 ft | 306 kts | 330° |
| 2026-04-28 13:15 | 46.35350 | -1.23298 | 10725 ft | 334 kts | 329° |
| 2026-04-28 13:15 | 46.37437 | -1.24971 | 11184 ft | 346 kts | 328° |
| 2026-04-28 13:15 | 46.39537 | -1.26654 | 12083 ft | 346 kts | 328° |
| 2026-04-28 13:15 | 46.41661 | -1.28363 | 12777 ft | 352 kts | 328° |
| 2026-04-28 13:16 | 46.43808 | -1.30092 | 13547 ft | 355 kts | 328° |
| 2026-04-28 13:16 | 46.45980 | -1.31840 | 14248 ft | 358 kts | 328° |
| 2026-04-28 13:16 | 46.48230 | -1.33449 | 14815 ft | 367 kts | 338° |
| 2026-04-28 13:16 | 46.50775 | -1.34043 | 15455 ft | 376 kts | 355° |
| 2026-04-28 13:17 | 46.53389 | -1.33498 | 16098 ft | 386 kts | 12° |
| 2026-04-28 13:17 | 46.55960 | -1.32302 | 16763 ft | 390 kts | 15° |
| 2026-04-28 13:17 | 46.58552 | -1.31041 | 17405 ft | 396 kts | 15° |
| 2026-04-28 13:17 | 46.61190 | -1.29787 | 18060 ft | 401 kts | 14° |
| 2026-04-28 13:18 | 46.63869 | -1.28535 | 18695 ft | 406 kts | 14° |
| 2026-04-28 13:18 | 46.66575 | -1.27255 | 19301 ft | 411 kts | 14° |
| 2026-04-28 13:18 | 46.69312 | -1.25947 | 19925 ft | 416 kts | 14° |
| 2026-04-28 13:18 | 46.72044 | -1.24645 | 20543 ft | 421 kts | 14° |
| 2026-04-28 13:19 | 46.74840 | -1.23319 | 21151 ft | 426 kts | 13° |
| 2026-04-28 13:19 | 46.77678 | -1.21970 | 21765 ft | 430 kts | 13° |
| 2026-04-28 13:19 | 46.80546 | -1.20601 | 22341 ft | 436 kts | 14° |
| 2026-04-28 13:19 | 46.83442 | -1.19217 | 22930 ft | 441 kts | 14° |
| 2026-04-28 13:20 | 46.86373 | -1.17819 | 23508 ft | 446 kts | 13° |
| 2026-04-28 13:20 | 46.89337 | -1.16412 | 24004 ft | 450 kts | 13° |
| 2026-04-28 13:20 | 46.92333 | -1.14990 | 24488 ft | 455 kts | 13° |
| 2026-04-28 13:20 | 46.95363 | -1.13542 | 24959 ft | 460 kts | 13° |
| 2026-04-28 13:21 | 46.98420 | -1.12067 | 25453 ft | 465 kts | 13° |
| 2026-04-28 13:21 | 47.01505 | -1.10577 | 25919 ft | 469 kts | 13° |
| 2026-04-28 13:21 | 47.04621 | -1.09077 | 26401 ft | 474 kts | 13° |
| 2026-04-28 13:21 | 47.07767 | -1.07562 | 26897 ft | 478 kts | 13° |
| 2026-04-28 13:22 | 47.10942 | -1.06028 | 27381 ft | 483 kts | 13° |
| 2026-04-28 13:22 | 47.14147 | -1.04476 | 27863 ft | 487 kts | 13° |
| 2026-04-28 13:22 | 47.17388 | -1.02907 | 28381 ft | 492 kts | 13° |
| 2026-04-28 13:22 | 47.20652 | -1.01325 | 28825 ft | 498 kts | 13° |
| 2026-04-28 13:23 | 47.23957 | -0.99720 | 29300 ft | 502 kts | 13° |
| 2026-04-28 13:23 | 47.27288 | -0.98099 | 29766 ft | 507 kts | 13° |
| 2026-04-28 13:23 | 47.30608 | -0.96482 | 30204 ft | 511 kts | 13° |
| 2026-04-28 13:23 | 47.33994 | -0.94833 | 30640 ft | 514 kts | 13° |
| 2026-04-28 13:24 | 47.37396 | -0.93170 | 31157 ft | 514 kts | 13° |
| 2026-04-28 13:24 | 47.40770 | -0.91517 | 31957 ft | 508 kts | 14° |
| 2026-04-28 13:24 | 47.44103 | -0.89884 | 32788 ft | 502 kts | 14° |
| 2026-04-28 13:24 | 47.47408 | -0.88266 | 33614 ft | 496 kts | 14° |
| 2026-04-28 13:25 | 47.50692 | -0.86715 | 34049 ft | 497 kts | 12° |
| 2026-04-28 13:25 | 47.57628 | -0.85674 | 34059 ft | 508 kts | 353° |
| 2026-04-28 13:26 | 47.64785 | -0.86553 | 34084 ft | 525 kts | 352° |
| 2026-04-28 13:26 | 47.72124 | -0.87417 | 34083 ft | 530 kts | 352° |
| 2026-04-28 13:27 | 47.79488 | -0.88340 | 34085 ft | 532 kts | 352° |
| 2026-04-28 13:27 | 47.86858 | -0.89233 | 34090 ft | 530 kts | 353° |
| 2026-04-28 13:28 | 47.94171 | -0.90141 | 34091 ft | 531 kts | 353° |
| 2026-04-28 13:28 | 48.01536 | -0.91048 | 34104 ft | 531 kts | 353° |
| 2026-04-28 13:29 | 48.08909 | -0.91963 | 34095 ft | 533 kts | 353° |
| 2026-04-28 13:29 | 48.16295 | -0.92880 | 34097 ft | 532 kts | 353° |
| 2026-04-28 13:30 | 48.23676 | -0.93800 | 34109 ft | 533 kts | 353° |
| 2026-04-28 13:30 | 48.31078 | -0.94724 | 34108 ft | 533 kts | 353° |
| 2026-04-28 13:31 | 48.42184 | -0.96118 | 34118 ft | 534 kts | 353° |
| 2026-04-28 13:31 | 48.49584 | -0.97049 | 34123 ft | 533 kts | 353° |
| 2026-04-28 13:32 | 48.56969 | -0.97982 | 34132 ft | 532 kts | 353° |
| 2026-04-28 13:32 | 48.64355 | -0.98918 | 34131 ft | 532 kts | 353° |
| 2026-04-28 13:33 | 48.71723 | -0.99853 | 34138 ft | 529 kts | 354° |
| 2026-04-28 13:33 | 48.79068 | -1.00789 | 34141 ft | 530 kts | 354° |
| 2026-04-28 13:34 | 48.86420 | -1.01728 | 34149 ft | 530 kts | 354° |
| 2026-04-28 13:34 | 48.93779 | -1.02671 | 34161 ft | 530 kts | 354° |
| 2026-04-28 13:35 | 49.01079 | -1.03609 | 34161 ft | 530 kts | 354° |
| 2026-04-28 13:35 | 49.08429 | -1.04557 | 34171 ft | 530 kts | 354° |
| 2026-04-28 13:36 | 49.15753 | -1.05503 | 34170 ft | 527 kts | 355° |
| 2026-04-28 13:36 | 49.23070 | -1.06452 | 34186 ft | 527 kts | 354° |
| 2026-04-28 13:37 | 49.30386 | -1.07403 | 34193 ft | 527 kts | 355° |
| 2026-04-28 13:37 | 49.37681 | -1.08356 | 34196 ft | 525 kts | 355° |
| 2026-04-28 13:38 | 49.44960 | -1.09307 | 34203 ft | 525 kts | 355° |
| 2026-04-28 13:38 | 49.52232 | -1.08709 | 34198 ft | 525 kts | 11° |
| 2026-04-28 13:39 | 49.59064 | -1.05005 | 33697 ft | 523 kts | 28° |
| 2026-04-28 13:39 | 49.62157 | -1.02042 | 33020 ft | 523 kts | 36° |
| 2026-04-28 13:39 | 49.64932 | -0.98454 | 32333 ft | 521 kts | 44° |
| 2026-04-28 13:40 | 49.67357 | -0.94304 | 31649 ft | 521 kts | 51° |
| 2026-04-28 13:40 | 49.69609 | -0.89995 | 30967 ft | 523 kts | 51° |
| 2026-04-28 13:40 | 49.71921 | -0.85602 | 30279 ft | 531 kts | 51° |
| 2026-04-28 13:40 | 49.74263 | -0.81165 | 29528 ft | 533 kts | 51° |
| 2026-04-28 13:41 | 49.76558 | -0.76788 | 28829 ft | 509 kts | 52° |
| 2026-04-28 13:41 | 49.78716 | -0.72650 | 28175 ft | 477 kts | 52° |
| 2026-04-28 13:41 | 49.80729 | -0.68793 | 27573 ft | 447 kts | 52° |
| 2026-04-28 13:41 | 49.82639 | -0.65137 | 26998 ft | 426 kts | 52° |
| 2026-04-28 13:42 | 49.84477 | -0.61609 | 26447 ft | 418 kts | 52° |
| 2026-04-28 13:42 | 49.86294 | -0.58112 | 25902 ft | 416 kts | 52° |
| 2026-04-28 13:42 | 49.88116 | -0.54603 | 25362 ft | 417 kts | 52° |
| 2026-04-28 13:42 | 49.89925 | -0.51120 | 24809 ft | 412 kts | 52° |
| 2026-04-28 13:43 | 49.91722 | -0.47656 | 24267 ft | 410 kts | 52° |
| 2026-04-28 13:43 | 49.93688 | -0.44475 | 23692 ft | 407 kts | 42° |
| 2026-04-28 13:43 | 49.95914 | -0.41791 | 23145 ft | 404 kts | 39° |
| 2026-04-28 13:43 | 49.98123 | -0.39131 | 22618 ft | 396 kts | 40° |
| 2026-04-28 13:44 | 50.00275 | -0.36494 | 22219 ft | 397 kts | 40° |
| 2026-04-28 13:44 | 50.02484 | -0.33790 | 22231 ft | 409 kts | 40° |
| 2026-04-28 13:44 | 50.03977 | -0.31982 | 22227 ft | 409 kts | 40° |
| 2026-04-28 13:44 | 50.06850 | -0.28517 | 21866 ft | 386 kts | 41° |
| 2026-04-28 13:45 | 50.08275 | -0.26778 | 21640 ft | 387 kts | 40° |
| 2026-04-28 13:45 | 50.10397 | -0.24172 | 21301 ft | 387 kts | 41° |
| 2026-04-28 13:45 | 50.12498 | -0.21606 | 20963 ft | 383 kts | 40° |
| 2026-04-28 13:45 | 50.15105 | -0.17931 | 20494 ft | 378 kts | 52° |
| 2026-04-28 13:46 | 50.16582 | -0.14595 | 20186 ft | 373 kts | 60° |
| 2026-04-28 13:46 | 50.17505 | -0.12242 | 19970 ft | 375 kts | 60° |
| 2026-04-28 13:46 | 50.18868 | -0.08811 | 19633 ft | 369 kts | 60° |
| 2026-04-28 13:46 | 50.20229 | -0.05410 | 19314 ft | 370 kts | 60° |
| 2026-04-28 13:47 | 50.21581 | -0.01999 | 18992 ft | 367 kts | 60° |
| 2026-04-28 13:47 | 50.22897 | 0.01342 | 18665 ft | 366 kts | 60° |
| 2026-04-28 13:47 | 50.24234 | 0.04725 | 18332 ft | 363 kts | 60° |
| 2026-04-28 13:47 | 50.25557 | 0.08069 | 17998 ft | 361 kts | 60° |
| 2026-04-28 13:48 | 50.26873 | 0.11410 | 17681 ft | 360 kts | 60° |
| 2026-04-28 13:48 | 50.28178 | 0.14727 | 17366 ft | 357 kts | 60° |
| 2026-04-28 13:48 | 50.29482 | 0.18045 | 17051 ft | 359 kts | 60° |
| 2026-04-28 13:48 | 50.30779 | 0.21345 | 16734 ft | 354 kts | 60° |
| 2026-04-28 13:49 | 50.32069 | 0.24633 | 16423 ft | 354 kts | 60° |
| 2026-04-28 13:49 | 50.33356 | 0.27922 | 16117 ft | 352 kts | 60° |
| 2026-04-28 13:49 | 50.34632 | 0.31182 | 15809 ft | 351 kts | 60° |
| 2026-04-28 13:49 | 50.35906 | 0.34441 | 15496 ft | 350 kts | 60° |
| 2026-04-28 13:50 | 50.37170 | 0.37680 | 15189 ft | 345 kts | 60° |
| 2026-04-28 13:50 | 50.38425 | 0.40901 | 14880 ft | 349 kts | 60° |
| 2026-04-28 13:50 | 50.39681 | 0.44128 | 14580 ft | 343 kts | 60° |
| 2026-04-28 13:50 | 50.40908 | 0.47280 | 14277 ft | 345 kts | 61° |
| 2026-04-28 13:51 | 50.42341 | 0.50491 | 14194 ft | 358 kts | 51° |
| 2026-04-28 13:51 | 50.44189 | 0.52848 | 14216 ft | 345 kts | 35° |
| 2026-04-28 13:51 | 50.46446 | 0.54347 | 14217 ft | 359 kts | 19° |
| 2026-04-28 13:51 | 50.48910 | 0.55044 | 14238 ft | 361 kts | 13° |
| 2026-04-28 13:52 | 50.51395 | 0.55658 | 14247 ft | 361 kts | 12° |
| 2026-04-28 13:52 | 50.53873 | 0.56281 | 14242 ft | 361 kts | 13° |
| 2026-04-28 13:52 | 50.56356 | 0.56915 | 14243 ft | 361 kts | 13° |
| 2026-04-28 13:52 | 50.58834 | 0.57545 | 14242 ft | 361 kts | 12° |
| 2026-04-28 13:53 | 50.61317 | 0.58173 | 14245 ft | 361 kts | 13° |
| 2026-04-28 13:53 | 50.63792 | 0.58800 | 14244 ft | 361 kts | 13° |
| 2026-04-28 13:53 | 50.66276 | 0.59433 | 14231 ft | 363 kts | 13° |
| 2026-04-28 13:53 | 50.68774 | 0.60070 | 14230 ft | 363 kts | 14° |
| 2026-04-28 13:54 | 50.71272 | 0.60706 | 14238 ft | 363 kts | 13° |
| 2026-04-28 13:54 | 50.73773 | 0.61343 | 14238 ft | 363 kts | 13° |
| 2026-04-28 13:54 | 50.76267 | 0.61980 | 14238 ft | 363 kts | 13° |
| 2026-04-28 13:54 | 50.78760 | 0.62619 | 14244 ft | 364 kts | 13° |
| 2026-04-28 13:55 | 50.81263 | 0.63259 | 14244 ft | 363 kts | 13° |
| 2026-04-28 13:55 | 50.83762 | 0.63899 | 14244 ft | 364 kts | 13° |
| 2026-04-28 13:55 | 50.86257 | 0.64540 | 14257 ft | 364 kts | 13° |
| 2026-04-28 13:55 | 50.88753 | 0.65181 | 14286 ft | 363 kts | 14° |
| 2026-04-28 13:56 | 50.91251 | 0.65824 | 14305 ft | 364 kts | 13° |
| 2026-04-28 13:56 | 50.93749 | 0.66466 | 14321 ft | 364 kts | 13° |
| 2026-04-28 13:56 | 50.96246 | 0.67109 | 14336 ft | 363 kts | 13° |
| 2026-04-28 13:56 | 50.98746 | 0.67755 | 14357 ft | 364 kts | 13° |
| 2026-04-28 13:57 | 51.01241 | 0.68399 | 14369 ft | 364 kts | 14° |
| 2026-04-28 13:57 | 51.03741 | 0.69045 | 14381 ft | 364 kts | 14° |
| 2026-04-28 13:57 | 51.06238 | 0.69691 | 14396 ft | 363 kts | 14° |
| 2026-04-28 13:57 | 51.08733 | 0.70337 | 14404 ft | 363 kts | 14° |
| 2026-04-28 13:58 | 51.11202 | 0.70975 | 14105 ft | 350 kts | 13° |
| 2026-04-28 13:58 | 51.13609 | 0.71598 | 12542 ft | 354 kts | 14° |
| 2026-04-28 13:58 | 51.16029 | 0.72233 | 11714 ft | 349 kts | 14° |
| 2026-04-28 13:58 | 51.18331 | 0.72822 | 11458 ft | 322 kts | 13° |
| 2026-04-28 13:59 | 51.20473 | 0.73372 | 11095 ft | 301 kts | 14° |
| 2026-04-28 13:59 | 51.22478 | 0.73900 | 10728 ft | 284 kts | 15° |
| 2026-04-28 13:59 | 51.24359 | 0.74396 | 10387 ft | 271 kts | 15° |
| 2026-04-28 13:59 | 51.26177 | 0.74871 | 10035 ft | 259 kts | 15° |
| 2026-04-28 14:00 | 51.27919 | 0.75325 | 9698 ft | 248 kts | 16° |
| 2026-04-28 14:00 | 51.29593 | 0.75764 | 9386 ft | 239 kts | 16° |
| 2026-04-28 14:00 | 51.31213 | 0.76189 | 9081 ft | 232 kts | 15° |
| 2026-04-28 14:00 | 51.32800 | 0.76606 | 8776 ft | 228 kts | 16° |
| 2026-04-28 14:01 | 51.34360 | 0.77017 | 8396 ft | 226 kts | 16° |
| 2026-04-28 14:01 | 51.35913 | 0.77426 | 8106 ft | 226 kts | 16° |
| 2026-04-28 14:01 | 51.37461 | 0.77831 | 7815 ft | 225 kts | 16° |
| 2026-04-28 14:01 | 51.38993 | 0.78233 | 7519 ft | 222 kts | 17° |
| 2026-04-28 14:02 | 51.40513 | 0.78632 | 7221 ft | 220 kts | 16° |
| 2026-04-28 14:02 | 51.42002 | 0.79024 | 6932 ft | 219 kts | 15° |
| 2026-04-28 14:02 | 51.43519 | 0.79423 | 6643 ft | 217 kts | 16° |
| 2026-04-28 14:02 | 51.45022 | 0.79668 | 6311 ft | 222 kts | 4° |
| 2026-04-28 14:03 | 51.46514 | 0.78874 | 5999 ft | 234 kts | 336° |
| 2026-04-28 14:03 | 51.47649 | 0.77025 | 5978 ft | 236 kts | 307° |
| 2026-04-28 14:03 | 51.48163 | 0.74468 | 5838 ft | 251 kts | 279° |
| 2026-04-28 14:03 | 51.48273 | 0.71681 | 5640 ft | 254 kts | 275° |
| 2026-04-28 14:04 | 51.48350 | 0.68843 | 5429 ft | 255 kts | 276° |
| 2026-04-28 14:04 | 51.48454 | 0.65998 | 5193 ft | 256 kts | 276° |
| 2026-04-28 14:04 | 51.48564 | 0.63144 | 4962 ft | 255 kts | 276° |
| 2026-04-28 14:04 | 51.48666 | 0.60338 | 4703 ft | 251 kts | 276° |
| 2026-04-28 14:05 | 51.48765 | 0.57572 | 4439 ft | 247 kts | 276° |
| 2026-04-28 14:05 | 51.48860 | 0.54886 | 4175 ft | 236 kts | 277° |
| 2026-04-28 14:05 | 51.48950 | 0.52323 | 3981 ft | 221 kts | 277° |
| 2026-04-28 14:05 | 51.49035 | 0.49922 | 3834 ft | 216 kts | 277° |
| 2026-04-28 14:06 | 51.49094 | 0.47503 | 3558 ft | 217 kts | 271° |
| 2026-04-28 14:06 | 51.48585 | 0.45247 | 3065 ft | 221 kts | 241° |
| 2026-04-28 14:06 | 51.47798 | 0.43200 | 3007 ft | 210 kts | 240° |
| 2026-04-28 14:06 | 51.47056 | 0.41203 | 3018 ft | 208 kts | 242° |
| 2026-04-28 14:07 | 51.46330 | 0.39203 | 3029 ft | 211 kts | 242° |
| 2026-04-28 14:07 | 51.45578 | 0.37147 | 3026 ft | 216 kts | 241° |
| 2026-04-28 14:07 | 51.44812 | 0.35062 | 3023 ft | 217 kts | 240° |
| 2026-04-28 14:07 | 51.44045 | 0.32981 | 3022 ft | 217 kts | 241° |
| 2026-04-28 14:08 | 51.43280 | 0.30899 | 3030 ft | 216 kts | 241° |
| 2026-04-28 14:08 | 51.42519 | 0.28833 | 3024 ft | 215 kts | 241° |
| 2026-04-28 14:08 | 51.41755 | 0.26767 | 3011 ft | 215 kts | 241° |
| 2026-04-28 14:08 | 51.40993 | 0.24705 | 3022 ft | 216 kts | 241° |
| 2026-04-28 14:09 | 51.40221 | 0.22619 | 3002 ft | 219 kts | 241° |
| 2026-04-28 14:09 | 51.39443 | 0.20528 | 3003 ft | 217 kts | 240° |
| 2026-04-28 14:09 | 51.38389 | 0.18833 | 2935 ft | 216 kts | 208° |
| 2026-04-28 14:09 | 51.37070 | 0.17695 | 3004 ft | 216 kts | 206° |
| 2026-04-28 14:10 | 51.35773 | 0.16539 | 3005 ft | 211 kts | 207° |
| 2026-04-28 14:10 | 51.34505 | 0.15387 | 3007 ft | 209 kts | 208° |
| 2026-04-28 14:10 | 51.33407 | 0.13865 | 2907 ft | 215 kts | 240° |
| 2026-04-28 14:10 | 51.33035 | 0.11647 | 2948 ft | 205 kts | 274° |
| 2026-04-28 14:11 | 51.33114 | 0.09344 | 3012 ft | 210 kts | 279° |
| 2026-04-28 14:11 | 51.33206 | 0.07003 | 3006 ft | 212 kts | 279° |
| 2026-04-28 14:11 | 51.33286 | 0.04651 | 3000 ft | 211 kts | 278° |
| 2026-04-28 14:11 | 51.33364 | 0.02323 | 3006 ft | 209 kts | 279° |
| 2026-04-28 14:12 | 51.33436 | 0.00014 | 2976 ft | 206 kts | 278° |
| 2026-04-28 14:12 | 51.33502 | -0.02248 | 2998 ft | 201 kts | 278° |
| 2026-04-28 14:12 | 51.33569 | -0.04457 | 3002 ft | 197 kts | 278° |
| 2026-04-28 14:12 | 51.33634 | -0.06623 | 2998 ft | 194 kts | 278° |
| 2026-04-28 14:13 | 51.33699 | -0.08771 | 3015 ft | 194 kts | 278° |
| 2026-04-28 14:13 | 51.33567 | -0.10953 | 2859 ft | 208 kts | 251° |
| 2026-04-28 14:13 | 51.32684 | -0.12755 | 2626 ft | 207 kts | 218° |
| 2026-04-28 14:13 | 51.31492 | -0.14055 | 2521 ft | 206 kts | 212° |
| 2026-04-28 14:14 | 51.30298 | -0.15342 | 2363 ft | 206 kts | 213° |
| 2026-04-28 14:14 | 51.29036 | -0.16224 | 2046 ft | 190 kts | 180° |
| 2026-04-28 14:14 | 51.27854 | -0.15819 | 1664 ft | 164 kts | 143° |
| 2026-04-28 14:14 | 51.27141 | -0.14747 | 1719 ft | 122 kts | 110° |
| 2026-04-28 14:15 | 51.26732 | -0.13562 | 1972 ft | 123 kts | 105° |
| 2026-04-28 14:15 | 51.26347 | -0.12393 | 1968 ft | 118 kts | 103° |
| 2026-04-28 14:15 | 51.25976 | -0.11236 | 1961 ft | 119 kts | 104° |
| 2026-04-28 14:15 | 51.25590 | -0.09932 | 1920 ft | 134 kts | 101° |
| 2026-04-28 14:16 | 51.25369 | -0.08537 | 1909 ft | 130 kts | 87° |
| 2026-04-28 14:16 | 51.25369 | -0.07102 | 1909 ft | 125 kts | 77° |
| 2026-04-28 14:16 | 51.25471 | -0.05734 | 1960 ft | 126 kts | 73° |
| 2026-04-28 14:16 | 51.25763 | -0.04403 | 1908 ft | 123 kts | 63° |
| 2026-04-28 14:17 | 51.26161 | -0.03233 | 1926 ft | 119 kts | 53° |
| 2026-04-28 14:17 | 51.26681 | -0.02237 | 1898 ft | 114 kts | 45° |
| 2026-04-28 14:17 | 51.27307 | -0.01425 | 1738 ft | 118 kts | 36° |
| 2026-04-28 14:17 | 51.27985 | -0.00750 | 1660 ft | 113 kts | 33° |
| 2026-04-28 14:18 | 51.28692 | -0.00221 | 1465 ft | 110 kts | 29° |
| 2026-04-28 14:18 | 51.29366 | 0.00341 | 1413 ft | 109 kts | 30° |
| 2026-04-28 14:18 | 51.30042 | 0.00867 | 1235 ft | 104 kts | 30° |
| 2026-04-28 14:18 | 51.30678 | 0.01348 | 1109 ft | 101 kts | 30° |
| 2026-04-28 14:19 | 51.31310 | 0.01854 | 999 ft | 101 kts | 29° |
| 2026-04-28 14:19 | 51.31944 | 0.02360 | 852 ft | 103 kts | 29° |
| 2026-04-28 14:19 | 51.32575 | 0.02835 | 672 ft | 97 kts | 27° |
| 2026-04-28 14:19 | 51.33129 | 0.03268 | 574 ft | 78 kts | 26° |
| 2026-04-28 14:20 | 51.33489 | 0.03547 | 545 ft | 35 kts | 26° |
| 2026-04-28 14:20 | 51.33590 | 0.03616 | 539 ft | 4 kts | 349° |
| 2026-04-28 14:20 | 51.33612 | 0.03584 | 538 ft | 4 kts | 284° |
| 2026-04-28 14:20 | 51.33613 | 0.03532 | 536 ft | 4 kts | 254° |
| 2026-04-28 14:21 | 51.33599 | 0.03480 | 535 ft | 5 kts | 237° |
| 2026-04-28 14:21 | 51.33580 | 0.03454 | 536 ft | 2 kts | 207° |
| 2026-04-28 14:21 | 51.33567 | 0.03444 | 536 ft | 3 kts | 204° |
| 2026-04-28 14:21 | 51.33546 | 0.03429 | 538 ft | 4 kts | 205° |
| 2026-04-28 14:22 | 51.33523 | 0.03411 | 539 ft | 4 kts | 205° |
| 2026-04-28 14:22 | 51.33497 | 0.03392 | 541 ft | 4 kts | 205° |
| 2026-04-28 14:22 | 51.33467 | 0.03368 | 543 ft | 5 kts | 206° |
| 2026-04-28 14:22 | 51.33436 | 0.03343 | 546 ft | 4 kts | 206° |
| 2026-04-28 14:23 | 51.33407 | 0.03321 | 548 ft | 6 kts | 206° |
| 2026-04-28 14:23 | 51.33382 | 0.03267 | 550 ft | 8 kts | 264° |
| 2026-04-28 14:23 | 51.33346 | 0.03164 | 557 ft | 13 kts | 206° |
| 2026-04-28 14:23 | 51.33261 | 0.03102 | 561 ft | 13 kts | 204° |
| 2026-04-28 14:24 | 51.33201 | 0.03055 | 564 ft | 7 kts | 208° |
| 2026-04-28 14:24 | 51.33177 | 0.03033 | 569 ft | 0 kts | 223° |
| 2026-04-28 14:24 | 51.33177 | 0.03030 | 568 ft | 1 kts | 237° |
| 2026-04-28 14:24 | 51.33177 | 0.03025 | 567 ft | 1 kts | 270° |
| 2026-04-28 14:25 | 51.33180 | 0.03017 | 566 ft | 3 kts | 291° |
| 2026-04-28 14:25 | 51.33186 | 0.02974 | 570 ft | 1 kts | 238° |
| 2026-04-28 14:25 | 51.33179 | 0.02970 | 564 ft | 2 kts | 204° |
| 2026-04-28 14:25 | 51.33177 | 0.02968 | 564 ft | 0 kts | 206° |